Flight Track Log - Related Links

Times and Time Zones

All times are in EDT time to prevent confusion due to time zone crossing. See the OPT732 flight status page for this flight to view local times or setup timezone preferences in your user account.

Time Position Orientation Groundspeed Altitude Reporting Facility
EDT Latitude Longitude Course Direction KTS MPH feet Rate Location/Type
Fri 12:38:03 PM 32.6814 -80.0369 301° West 262 302 4,400  Level Jacksonville Center
Fri 12:39:03 PM 32.6914 -80.1156 279° West 268 308 7,000 2,600 Climbing Jacksonville Center
Fri 12:40:03 PM 32.7286 -80.1911 300° West 274 315 9,600 2,650 Climbing Jacksonville Center
Fri 12:41:03 PM 32.7739 -80.2689 305° West 268 308 12,300 2,550 Climbing Jacksonville Center
Fri 12:42:00 PM 32.9754 -80.9008 301° West  Level FlightAware Approximate
Fri 12:42:03 PM 32.8153 -80.3492 302° West 283 326 14,700  Level Jacksonville Center
Fri 12:43:00 PM 33.0388 -81.0275 301° West  Level FlightAware Approximate
Fri 12:43:03 PM 32.8567 -80.4319 301° West 289 333 17,000  Level Jacksonville Center
Fri 12:44:03 PM 32.9022 -80.5222 301° West 299 344 19,100 2,200 Climbing Jacksonville Center
Fri 12:45:03 PM 32.9497 -80.6175 301° West 315 362 21,400 2,150 Climbing Jacksonville Center
Fri 12:46:03 PM 32.9994 -80.7153 301° West 331 381 23,400 1,700 Climbing Jacksonville Center
Fri 12:47:03 PM 33.0428 -80.8036 300° West 336 387 24,800 1,550 Climbing Jacksonville Center
Fri 12:48:03 PM 33.1028 -80.8989 307° West 348 400 26,500 1,700 Climbing Jacksonville Center
Fri 12:49:03 PM 33.1956 -80.9589 332° Northwest 348 400 28,200 1,650 Climbing Jacksonville Center
Fri 12:50:03 PM 33.2903 -81.0239 330° Northwest 374 430 29,800 1,550 Climbing Jacksonville Center
Fri 12:51:03 PM 33.3772 -81.1092 321° Northwest 392 451 31,300 1,500 Climbing Jacksonville Center
Fri 12:52:03 PM 33.4269 -81.2300 296° West 392 451 32,800 1,600 Climbing Jacksonville Center
Fri 12:53:03 PM 33.4808 -81.3661 295° West 408 470 34,500 1,600 Climbing Jacksonville Center
Fri 12:54:03 PM 33.5364 -81.4922 298° West 418 481 36,000 1,450 Climbing Jacksonville Center
Fri 12:55:03 PM 33.5858 -81.6186 295° West 423 487 37,400 1,252 Climbing Jacksonville Center
Fri 12:56:22 PM 33.6458 -81.7656 296° West 415 478 38,900 1,165 Climbing Atlanta Center
Fri 12:57:22 PM 33.6939 -81.8867 296° West 415 478 40,100 1,200 Climbing Atlanta Center
Fri 12:58:22 PM 33.7464 -82.0153 296° West 404 465 41,300 850 Climbing Atlanta Center
Fri 12:59:22 PM 33.7939 -82.1317 296° West 399 459 41,800 500 Climbing Atlanta Center
Fri 01:00:22 PM 33.8439 -82.2506 297° West 394 453 42,300 450 Climbing Atlanta Center
Fri 01:01:22 PM 33.8872 -82.3647 295° West 405 466 42,700 350 Climbing Atlanta Center
Fri 01:02:22 PM 33.9347 -82.4839 296° West 410 472 43,000 150 Climbing Atlanta Center
Fri 01:03:22 PM 33.9842 -82.6083 296° West 405 466 43,000  Level Atlanta Center
Fri 01:04:22 PM 34.0378 -82.7353 297° West 417 480 43,000  Level Atlanta Center
Fri 01:05:22 PM 34.0914 -82.8672 296° West 429 494 43,000  Level Atlanta Center
Fri 01:06:22 PM 34.1572 -82.9894 303° West 435 501 43,000  Level Atlanta Center
Fri 01:07:22 PM 34.2250 -83.1142 303° West 441 507 43,000 50 Level Atlanta Center
Fri 01:08:22 PM 34.3008 -83.2467 305° West 441 507 43,100 200 Climbing Atlanta Center
Fri 01:09:22 PM 34.3664 -83.3644 304° West 436 502 43,400 250 Climbing Atlanta Center
Fri 01:10:22 PM 34.4358 -83.4872 304° West 436 502 43,600 200 Climbing Atlanta Center
Fri 01:11:22 PM 34.5031 -83.6078 304° West 436 502 43,800 250 Climbing Atlanta Center
Fri 01:12:22 PM 34.5722 -83.7336 304° West 436 502 44,100 250 Climbing Atlanta Center
Fri 01:13:22 PM 34.6436 -83.8594 305° West 436 502 44,300 250 Climbing Atlanta Center
Fri 01:14:22 PM 34.7083 -83.9858 302° West 436 502 44,600 250 Climbing Atlanta Center
Fri 01:15:22 PM 34.7772 -84.1122 304° West 442 509 44,800 200 Climbing Atlanta Center
Fri 01:16:22 PM 34.8503 -84.2336 306° West 442 509 45,000 100 Climbing Atlanta Center
Fri 01:17:22 PM 34.9186 -84.3606 303° West 451 519 45,000  Level Atlanta Center
Fri 01:18:22 PM 34.9769 -84.4772 301° West 451 519 45,000  Level Atlanta Center
Fri 01:19:22 PM 35.0494 -84.6097 304° West 457 526 45,000  Level Atlanta Center
Fri 01:20:22 PM 35.1175 -84.7397 303° West 462 532 45,000  Level Atlanta Center
Fri 01:21:22 PM 35.1875 -84.8722 303° West 462 532 45,000  Level Atlanta Center
Fri 01:22:22 PM 35.2597 -85.0028 304° West 462 532 45,000  Level Atlanta Center
Fri 01:23:57 PM 35.3700 -85.2111 303° West 460 529 45,000  Level Memphis Center
Fri 01:24:56 PM 35.4378 -85.3419 302° West 460 529 45,000  Level Memphis Center
Fri 01:25:56 PM 35.5100 -85.4756 304° West 466 536 45,000  Level Memphis Center
Fri 01:26:56 PM 35.5775 -85.6067 302° West 466 536 45,000  Level Memphis Center
Fri 01:27:56 PM 35.6494 -85.7406 304° West 466 536 45,000  Level Memphis Center
Fri 01:28:57 PM 35.7189 -85.8747 303° West 466 536 45,000  Level Memphis Center
Fri 01:29:56 PM 35.7883 -86.0067 303° West 466 536 45,000  Level Memphis Center
Fri 01:30:56 PM 35.8575 -86.1411 302° West 466 536 45,000  Level Memphis Center
Fri 01:31:56 PM 35.9267 -86.2736 303° West 466 536 45,000  Level Memphis Center
Fri 01:32:56 PM 35.9936 -86.4086 302° West 466 536 45,000  Level Memphis Center
Fri 01:33:56 PM 36.0603 -86.5417 302° West 466 536 45,000  Level Memphis Center
Fri 01:34:56 PM 36.1356 -86.6872 303° West 459 528 45,000  Level Memphis Center
Fri 01:35:56 PM 36.1978 -86.8206 300° West 459 528 45,000  Level Memphis Center
Fri 01:36:56 PM 36.2447 -86.9344 297° West 459 528 45,000  Level Memphis Center
Fri 01:37:56 PM 36.3156 -87.0886 300° West 465 535 45,000  Level Memphis Center
Fri 01:38:56 PM 36.3794 -87.2225 301° West 465 535 45,000  Level Memphis Center
Fri 01:39:56 PM 36.4392 -87.3544 299° West 453 521 45,000  Level Memphis Center
Fri 01:40:56 PM 36.5006 -87.4889 300° West 453 521 45,000  Level Memphis Center
Fri 01:41:56 PM 36.5600 -87.6264 298° West 453 521 45,000  Level Memphis Center
Fri 01:42:56 PM 36.6069 -87.7747 292° West 453 521 45,000  Level Memphis Center
Fri 01:43:56 PM 36.6519 -87.9361 289° West 458 527 45,000  Level Memphis Center
Fri 01:44:56 PM 36.6900 -88.0825 288° West 453 521 45,000  Level Memphis Center
Fri 01:45:56 PM 36.7300 -88.2161 291° West 458 527 45,000  Level Memphis Center
Fri 01:46:56 PM 36.7719 -88.3650 289° West 463 533 45,000  Level Memphis Center
Fri 01:47:56 PM 36.8097 -88.5169 287° West 463 533 45,000  Level Memphis Center
Fri 01:48:56 PM 36.8494 -88.6664 288° West 458 527 45,000  Level Memphis Center
Fri 01:49:56 PM 36.8889 -88.8161 288° West 458 527 45,000  Level Memphis Center
Fri 01:50:56 PM 36.9303 -88.9658 289° West 458 527 45,000  Level Memphis Center
Fri 01:51:56 PM 36.9694 -89.1158 288° West 458 527 45,000  Level Memphis Center
Fri 01:52:56 PM 37.0128 -89.2839 288° West 465 535 45,000  Level Memphis Center
Fri 01:54:41 PM 37.0728 -89.5233 288° West 455 524 45,000  Level Kansas City Center
Fri 01:55:43 PM 37.1100 -89.6728 287° West 453 521 45,000  Level Kansas City Center
Fri 01:56:45 PM 37.1558 -89.8522 288° West 453 521 45,000  Level Kansas City Center
Fri 01:57:47 PM 37.1939 -90.0025 288° West 453 521 45,000  Level Kansas City Center
Fri 01:58:49 PM 37.2319 -90.1522 288° West 453 521 45,000  Level Kansas City Center
Fri 01:59:51 PM 37.2692 -90.3039 287° West 455 524 45,000  Level Kansas City Center
Fri 02:00:53 PM 37.3075 -90.4569 288° West 457 526 45,000  Level Kansas City Center
Fri 02:01:55 PM 37.3447 -90.6122 287° West 457 526 45,000  Level Kansas City Center
Fri 02:02:58 PM 37.3853 -90.7758 287° West 458 527 45,000  Level Kansas City Center
Fri 02:04:00 PM 37.4214 -90.9289 287° West 457 526 45,000  Level Kansas City Center
Fri 02:05:02 PM 37.4581 -91.0817 287° West 455 524 45,000  Level Kansas City Center
Fri 02:06:04 PM 37.5014 -91.2644 287° West 453 521 45,000  Level Kansas City Center
Fri 02:07:06 PM 37.5386 -91.4164 287° West 452 520 45,000  Level Kansas City Center
Fri 02:08:08 PM 37.5744 -91.5697 286° West 455 524 45,000  Level Kansas City Center
Fri 02:09:10 PM 37.6103 -91.7222 287° West 453 521 45,000  Level Kansas City Center
Fri 02:10:12 PM 37.6458 -91.8764 286° West 454 522 45,000  Level Kansas City Center
Fri 02:11:14 PM 37.6822 -92.0306 287° West 455 524 45,000  Level Kansas City Center
Fri 02:12:16 PM 37.7208 -92.2008 286° West 455 524 45,000  Level Kansas City Center
Fri 02:13:18 PM 37.7569 -92.3547 287° West 457 526 45,000  Level Kansas City Center
Fri 02:14:20 PM 37.7922 -92.5100 286° West 459 528 45,000  Level Kansas City Center
Fri 02:15:22 PM 37.8275 -92.6642 286° West 458 527 45,000  Level Kansas City Center
Fri 02:16:24 PM 37.8681 -92.8444 286° West 456 525 45,000  Level Kansas City Center
Fri 02:17:26 PM 37.9028 -92.9994 286° West 455 524 45,000 48 Level Kansas City Center
Fri 02:18:28 PM 37.9389 -93.1542 287° West 455 524 45,100 96 Climbing Kansas City Center
Fri 02:19:31 PM 37.9725 -93.3083 286° West 453 521 45,200 96 Climbing Kansas City Center
Fri 02:20:33 PM 38.0058 -93.4622 285° West 452 520 45,300 97 Climbing Kansas City Center
Fri 02:21:35 PM 38.0394 -93.6164 286° West 452 520 45,400 145 Climbing Kansas City Center
Fri 02:22:37 PM 38.0789 -93.8003 285° West 450 518 45,600 145 Climbing Kansas City Center
Fri 02:23:39 PM 38.1133 -93.9528 286° West 450 518 45,700 145 Climbing Kansas City Center
Fri 02:24:41 PM 38.1425 -94.1003 284° West 448 516 45,900 145 Climbing Kansas City Center
Fri 02:25:43 PM 38.1789 -94.2708 285° West 448 516 46,000 145 Climbing Kansas City Center
Fri 02:26:45 PM 38.2094 -94.4169 285° West 446 513 46,200 145 Climbing Kansas City Center
Fri 02:27:47 PM 38.2389 -94.5650 284° West 448 516 46,300 97 Climbing Kansas City Center
Fri 02:28:49 PM 38.2733 -94.7356 284° West 447 514 46,400 145 Climbing Kansas City Center
Fri 02:29:51 PM 38.3044 -94.8800 285° West 444 511 46,600 145 Climbing Kansas City Center
Fri 02:30:53 PM 38.3386 -95.0503 284° West 443 510 46,700 97 Climbing Kansas City Center
Fri 02:31:55 PM 38.3675 -95.1933 284° West 438 504 46,800 145 Climbing Kansas City Center
Fri 02:32:57 PM 38.4003 -95.3611 284° West 438 504 47,000 97 Climbing Kansas City Center
Fri 02:33:59 PM 38.4294 -95.5075 284° West 440 506 47,000  Level Kansas City Center
Fri 02:35:02 PM 38.4633 -95.6756 284° West 437 503 47,000  Level Kansas City Center
Fri 02:36:04 PM 38.4917 -95.8186 284° West 435 501 47,000  Level Kansas City Center
Fri 02:37:06 PM 38.5239 -95.9864 284° West 435 501 47,000  Level Kansas City Center
Fri 02:38:08 PM 38.5533 -96.1319 285° West 438 504 47,000  Level Kansas City Center
Fri 02:39:10 PM 38.5797 -96.2761 283° West 437 503 47,000  Level Kansas City Center
Fri 02:40:12 PM 38.6117 -96.4453 284° West 438 504 47,000  Level Kansas City Center
Fri 02:41:14 PM 38.6386 -96.5908 283° West 438 504 47,000  Level Kansas City Center
Fri 02:42:16 PM 38.6706 -96.7606 284° West 439 505 47,000  Level Kansas City Center
Fri 02:43:18 PM 38.6978 -96.9025 284° West 440 506 47,000  Level Kansas City Center
Fri 02:44:20 PM 38.7253 -97.0544 283° West 441 507 47,000  Level Kansas City Center
Fri 02:45:22 PM 38.7583 -97.2367 283° West 440 506 47,000  Level Kansas City Center
Fri 02:46:24 PM 38.7864 -97.3886 283° West 440 506 47,000  Level Kansas City Center
Fri 02:47:26 PM 38.8136 -97.5400 283° West 441 507 47,000  Level Kansas City Center
Fri 02:48:28 PM 38.8342 -97.7128 279° West 441 507 47,000  Level Kansas City Center
Fri 02:49:30 PM 38.8475 -97.8511 277° West 443 510 47,000  Level Kansas City Center
Fri 02:50:32 PM 38.8617 -98.0069 277° West 443 510 47,000  Level Kansas City Center
Fri 02:51:35 PM 38.8789 -98.1947 277° West 443 510 47,000  Level Kansas City Center
Fri 02:52:37 PM 38.8933 -98.3511 277° West 444 511 47,000  Level Kansas City Center
Fri 02:53:39 PM 38.9075 -98.5075 277° West 442 509 47,000  Level Kansas City Center
Fri 02:54:41 PM 38.9214 -98.6647 277° West 444 511 47,000  Level Kansas City Center
Fri 02:55:43 PM 38.9350 -98.8214 276° West 445 512 47,000  Level Kansas City Center
Fri 02:56:45 PM 38.9511 -99.0089 276° West 443 510 47,000  Level Kansas City Center
Fri 02:57:47 PM 38.9642 -99.1658 276° West 443 510 47,000  Level Kansas City Center
Fri 02:58:55 PM 38.9758 -99.3333 275° West 442 509 47,000  Level Denver Center
Fri 02:59:56 PM 38.9897 -99.5078 276° West 441 507 47,000  Level Denver Center
Fri 03:00:58 PM 39.0025 -99.6583 276° West 443 510 47,000  Level Denver Center
Fri 03:02:00 PM 39.0167 -99.8339 276° West 443 510 47,000  Level Denver Center
Fri 03:03:02 PM 39.0275 -99.9842 275° West 442 509 47,000  Level Denver Center
Fri 03:04:03 PM 39.0389 -100.1519 275° West 448 516 47,000  Level Denver Center
Fri 03:05:05 PM 39.0514 -100.3025 276° West 445 512 47,000  Level Denver Center
Fri 03:06:07 PM 39.0636 -100.4803 275° West 445 512 47,000  Level Denver Center
Fri 03:07:21 PM 39.0747 -100.6311 275° West 443 510 47,000  Level Denver Center
Fri 03:08:23 PM 39.0889 -100.8353 275° West 448 516 47,000  Level Denver Center
Fri 03:09:25 PM 39.0992 -100.9869 275° West 446 513 47,000  Level Denver Center
Fri 03:10:26 PM 39.1111 -101.1672 275° West 450 518 47,000  Level Denver Center
Fri 03:11:28 PM 39.1211 -101.3214 275° West 452 520 47,000  Level Denver Center
Fri 03:12:30 PM 39.1325 -101.4989 275° West 446 513 47,000  Level Denver Center
Fri 03:13:32 PM 39.1417 -101.6525 274° West 448 516 47,000  Level Denver Center
Fri 03:14:34 PM 39.1511 -101.8097 274° West 449 517 47,000  Level Denver Center
Fri 03:15:36 PM 39.1622 -101.9892 275° West 451 519 47,000  Level Denver Center
Fri 03:16:37 PM 39.1756 -102.1431 276° West 451 519 47,000  Level Denver Center
Fri 03:17:39 PM 39.2008 -102.3197 281° West 450 518 47,000  Level Denver Center
Fri 03:18:41 PM 39.2225 -102.4731 280° West 455 524 47,000  Level Denver Center
Fri 03:19:44 PM 39.2522 -102.6503 282° West 454 522 47,000  Level Denver Center
Fri 03:20:45 PM 39.2792 -102.8092 282° West 454 522 47,000  Level Denver Center
Fri 03:21:47 PM 39.3014 -102.9636 281° West 456 525 47,000  Level Denver Center
Fri 03:22:49 PM 39.3122 -103.1444 274° West 456 525 47,000  Level Denver Center
Fri 03:23:51 PM 39.3181 -103.2994 273° West 454 522 47,000  Level Denver Center
Fri 03:24:53 PM 39.3247 -103.4819 273° West 455 524 47,000  Level Denver Center
Fri 03:25:54 PM 39.3303 -103.6392 273° West 458 527 47,000  Level Denver Center
Fri 03:26:56 PM 39.3372 -103.8225 273° West 459 528 47,000  Level Denver Center
Fri 03:27:58 PM 39.3417 -103.9811 272° West 463 533 47,000  Level Denver Center
Fri 03:29:00 PM 39.3489 -104.1572 273° West 477 549 47,000  Level Denver Center
Fri 03:30:02 PM 39.3525 -104.3381 272° West 471 542 47,000  Level Denver Center
Fri 03:31:03 PM 39.3572 -104.5044 272° West 464 534 47,000  Level Denver Center
Fri 03:32:05 PM 39.3617 -104.6708 272° West 463 533 47,000  Level Denver Center
Fri 03:33:07 PM 39.3653 -104.8533 272° West 471 542 47,000  Level Denver Center
Fri 03:34:09 PM 39.3697 -105.0208 272° West 468 539 47,000  Level Denver Center
Fri 03:35:11 PM 39.3722 -105.1886 271° West 469 540 47,000  Level Denver Center
Fri 03:36:12 PM 39.3769 -105.3725 272° West 476 548 47,000  Level Denver Center
Fri 03:37:14 PM 39.3786 -105.5144 271° West 468 539 47,000  Level Denver Center
Fri 03:38:16 PM 39.3842 -105.7172 272° West 471 542 47,000  Level Denver Center
Fri 03:39:18 PM 39.3856 -105.8889 271° West 475 547 47,000  Level Denver Center
Fri 03:40:20 PM 39.3886 -106.0600 271° West 476 548 47,000  Level Denver Center
Fri 03:41:22 PM 39.3917 -106.2414 271° West 473 544 47,000  Level Denver Center
Fri 03:42:23 PM 39.3939 -106.4061 271° West 478 550 47,000  Level Denver Center
Fri 03:43:25 PM 39.3956 -106.5994 271° West 481 554 47,000  Level Denver Center
Fri 03:44:27 PM 39.3975 -106.7658 271° West 484 557 47,000  Level Denver Center
Fri 03:45:29 PM 39.3914 -106.9592 268° West 482 555 47,000  Level Denver Center
Fri 03:46:31 PM 39.3753 -107.1244 263° West 485 558 47,000  Level Denver Center
Fri 03:47:33 PM 39.3558 -107.3186 263° West 488 562 47,000  Level Denver Center
Fri 03:48:35 PM 39.3400 -107.4847 263° West 487 560 47,000  Level Denver Center
Fri 03:49:37 PM 39.3228 -107.6525 262° West 489 563 47,000  Level Denver Center
Fri 03:50:39 PM 39.3025 -107.8475 262° West 491 565 47,000  Level Denver Center
Fri 03:51:40 PM 39.2869 -108.0144 263° West 489 563 47,000  Level Denver Center
Fri 03:52:42 PM 39.2664 -108.2086 262° West 486 559 47,000  Level Denver Center
Fri 03:53:44 PM 39.2492 -108.3753 262° West 487 560 47,000  Level Denver Center
Fri 03:54:46 PM 39.2275 -108.5717 262° West 489 563 47,000  Level Denver Center
Fri 03:55:48 PM 39.2100 -108.7389 262° West 489 563 47,000  Level Denver Center
Fri 03:56:50 PM 39.1911 -108.9061 262° West 488 562 47,000  Level Denver Center
Fri 03:57:52 PM 39.1692 -109.1011 262° West 489 563 47,000  Level Denver Center
Fri 03:58:54 PM 39.1514 -109.2675 262° West 489 563 47,000  Level Denver Center
Fri 03:59:56 PM 39.1292 -109.4617 262° West 489 563 47,000  Level Denver Center
Fri 04:00:58 PM 39.1100 -109.6275 262° West 490 564 47,000  Level Denver Center
Fri 04:02:00 PM 39.0886 -109.8211 262° West 488 562 47,000  Level Denver Center
Fri 04:02:26 PM 39.0808 -109.8764 260° West 490 564 47,000  Level Salt Lake Center
Fri 04:03:27 PM 39.0581 -110.0681 261° West 486 559 47,000  Level Salt Lake Center
Fri 04:04:04 PM 39.0506 -110.1528 264° West 487 560 47,000  Level Denver Center
Fri 04:04:29 PM 39.0394 -110.2344 260° West 488 562 47,000  Level Salt Lake Center
Fri 04:05:31 PM 39.0153 -110.4250 261° West 485 558 47,000  Level Salt Lake Center
Fri 04:06:32 PM 38.9944 -110.5892 261° West 486 559 47,000  Level Salt Lake Center
Fri 04:07:34 PM 38.9747 -110.7525 261° West 484 557 47,000  Level Salt Lake Center
Fri 04:08:35 PM 38.9694 -110.9492 268° West 485 558 47,000  Level Salt Lake Center
Fri 04:09:37 PM 38.9658 -111.1233 269° West 488 562 47,000  Level Salt Lake Center
Fri 04:10:39 PM 38.9631 -111.2969 269° West 488 562 47,000  Level Salt Lake Center
Fri 04:11:40 PM 38.9647 -111.4694 271° West 488 562 47,000  Level Salt Lake Center
Fri 04:12:42 PM 38.9633 -111.6439 269° West 490 564 47,000  Level Salt Lake Center
Fri 04:13:43 PM 38.9633 -111.8156 270° West 485 558 47,000  Level Salt Lake Center
Fri 04:14:45 PM 38.9572 -112.0253 268° West 491 565 47,000  Level Salt Lake Center
Fri 04:15:46 PM 38.9336 -112.1969 260° West 492 566 47,000  Level Salt Lake Center
Fri 04:16:48 PM 38.9036 -112.3686 257° West 495 570 47,000  Level Salt Lake Center
Fri 04:17:50 PM 38.8744 -112.5417 258° West 498 573 47,000  Level Salt Lake Center
Fri 04:18:51 PM 38.8439 -112.7122 257° West 495 570 47,000  Level Salt Lake Center
Fri 04:19:53 PM 38.8144 -112.8847 258° West 497 572 47,000  Level Salt Lake Center
Fri 04:20:54 PM 38.7831 -113.0583 257° West 500 575 47,000  Level Salt Lake Center
Fri 04:21:56 PM 38.7464 -113.2617 257° West 494 568 47,000  Level Salt Lake Center
Fri 04:22:57 PM 38.7147 -113.4331 257° West 496 571 47,000  Level Salt Lake Center
Fri 04:23:59 PM 38.6825 -113.6069 257° West 503 579 47,000  Level Salt Lake Center
Fri 04:25:00 PM 38.6514 -113.7786 257° West 500 575 47,000  Level Salt Lake Center
Fri 04:26:02 PM 38.6197 -113.9528 257° West 504 580 47,000  Level Salt Lake Center
Fri 04:27:03 PM 38.5864 -114.1242 256° West 502 578 47,000  Level Salt Lake Center
Fri 04:28:05 PM 38.5556 -114.2958 257° West 498 573 47,000  Level Salt Lake Center
Fri 04:29:06 PM 38.5142 -114.5031 256° West 503 579 47,000  Level Salt Lake Center
Fri 04:30:08 PM 38.4819 -114.6733 256° West 498 573 47,000  Level Salt Lake Center
Fri 04:31:09 PM 38.4483 -114.8431 256° West 495 570 47,000  Level Salt Lake Center
Fri 04:32:11 PM 38.4142 -115.0150 256° West 499 574 47,000  Level Salt Lake Center
Fri 04:33:13 PM 38.3808 -115.1853 256° West 499 574 47,000  Level Salt Lake Center
Fri 04:34:14 PM 38.3456 -115.3644 256° West 498 573 47,000  Level Salt Lake Center
Fri 04:35:16 PM 38.3119 -115.5333 256° West 494 568 47,000  Level Salt Lake Center
Fri 04:36:17 PM 38.2767 -115.7042 255° West 498 573 47,000  Level Salt Lake Center
Fri 04:37:19 PM 38.2431 -115.8736 256° West 495 570 47,000  Level Salt Lake Center
Fri 04:38:20 PM 38.2075 -116.0428 255° West 495 570 47,000  Level Salt Lake Center
Fri 04:39:22 PM 38.1661 -116.2436 255° West 492 566 47,000  Level Salt Lake Center
Fri 04:40:24 PM 38.1311 -116.4114 255° West 492 566 47,000  Level Salt Lake Center
Fri 04:41:26 PM 38.0950 -116.5806 255° West 493 567 47,000  Level Salt Lake Center
Fri 04:42:27 PM 38.0592 -116.7481 255° West 491 565 47,000  Level Salt Lake Center
Fri 04:43:29 PM 38.0189 -116.9147 253° West 490 564 47,000  Level Salt Lake Center
Fri 04:43:45 PM 38.0106 -116.9481 252° West 489 563 47,000  Level Oakland Center
Fri 04:44:47 PM 37.9694 -117.1167 253° West 491 565 47,000 -56 Level Oakland Center
Fri 04:45:32 PM 37.9367 -117.2531 253° West 495 570 46,900 -197 Descending Salt Lake Center
Fri 04:45:48 PM 37.9283 -117.2875 253° West 496 571 46,800 -692 Descending Oakland Center
Fri 04:46:50 PM 37.8861 -117.4578 253° West 499 574 46,000 -1,016 Descending Oakland Center
Fri 04:47:52 PM 37.8347 -117.6647 253° West 508 585 44,700 -1,122 Descending Oakland Center
Fri 04:48:53 PM 37.7903 -117.8414 252° West 520 598 43,700 -1,073 Descending Oakland Center
Fri 04:49:55 PM 37.7489 -118.0125 253° West 514 592 42,500 -1,366 Descending Oakland Center
Fri 04:50:56 PM 37.7072 -118.1775 252° West 497 572 40,900 -1,512 Descending Oakland Center
Fri 04:51:58 PM 37.6658 -118.3433 253° West 496 571 39,400 -1,463 Descending Oakland Center
Fri 04:52:59 PM 37.6236 -118.5072 252° West 493 567 37,900 -1,463 Descending Oakland Center
Fri 04:54:01 PM 37.5814 -118.6739 252° West 496 571 36,400 -1,610 Descending Oakland Center
Fri 04:55:02 PM 37.5272 -118.8764 251° West 519 597 34,600 -1,659 Descending Oakland Center
Fri 04:56:04 PM 37.4808 -119.0561 252° West 531 611 33,000 -1,463 Descending Oakland Center
Fri 04:57:05 PM 37.4369 -119.2397 253° West 539 620 31,600 -1,463 Descending Oakland Center
Fri 04:58:07 PM 37.3886 -119.4131 251° West 530 610 30,000 -1,902 Descending Oakland Center
Fri 04:59:08 PM 37.3414 -119.5911 252° West 539 620 27,700 -2,293 Descending Oakland Center
Fri 05:00:10 PM 37.2975 -119.7550 251° West 498 573 25,300 -2,293 Descending Oakland Center
Fri 05:01:11 PM 37.2706 -119.9175 258° West 472 543 23,000 -2,049 Descending Oakland Center
Fri 05:02:13 PM 37.2525 -120.0803 262° West 469 540 21,100 -1,610 Descending Oakland Center
Fri 05:03:14 PM 37.2342 -120.2408 262° West 460 529 19,700 -1,610 Descending Oakland Center
Fri 05:04:16 PM 37.2167 -120.3961 262° West 446 513 17,800 -2,041 Descending Oakland Center
Fri 05:04:51 PM 37.2000 -120.5000 259° West 498 573 16,400 -2,139 Descending Northern Cal TRACON
Fri 05:05:57 PM 37.1667 -120.6667 256° West 428 493 14,200 -2,048 Descending Northern Cal TRACON
Fri 05:06:57 PM 37.1333 -120.8000 253° West 423 487 12,100 -2,096 Descending Northern Cal TRACON
Fri 05:07:20 PM 37.1233 -120.8533 257° West 386 444 11,300 -1,500 Descending Oakland Center
Fri 05:08:21 PM 37.0928 -120.9872 254° West 392 451 10,000 -634 Descending Oakland Center
Fri 05:09:23 PM 37.0781 -121.1250 262° West 397 457 10,000  Level Oakland Center
Fri 05:10:24 PM 37.0686 -121.2567 265° West 395 455 10,000 -49 Level Oakland Center
Fri 05:11:26 PM 37.0592 -121.3894 265° West 389 448 9,900 -537 Descending Oakland Center
Fri 05:12:27 PM 37.0814 -121.4858 286° West 302 348 8,900 -1,122 Descending Oakland Center
Fri 05:13:29 PM 37.1156 -121.5811 294° West 288 331 7,600 -1,707 Descending Oakland Center
Fri 05:14:30 PM 37.1531 -121.6803 295° West 275 316 5,400 -1,707 Descending Oakland Center
Fri 05:15:32 PM 37.1953 -121.7533 306° West 269 310 4,100 -1,268 Descending Oakland Center
Fri 05:16:33 PM 37.2467 -121.8014 323° Northwest 246 283 2,800 -1,073 Descending Oakland Center
Fri 05:17:35 PM 37.2856 -121.8453 318° Northwest 213 245 1,900 -780 Descending Oakland Center
Fri 05:18:36 PM 37.3147 -121.8761 320° Northwest 166 191 1,200 -732 Descending Oakland Center
Fri 05:19:38 PM 37.3444 -121.9094 318° Northwest 149 171 400 -774 Descending Oakland Center
Fri 05:21:00 PM 37.3500 -121.9167 North  Level FlightAware Approximate
Fri 05:28:00 PM 37.3627 -121.9291 North  Level Estimated
Fri 05:29:00 PM 37.3627 -121.9291 North  Level Estimated

Login

Don't have an account? Register now (free) for customized features, flight alerts, and more!